Time;durP1;ratioP1;P1;durP2;ratioP2;P2;SDS_P1;SDS_P2;PMS_P1;PMS_P2;Temp;Humidity;BMP_temperature;BMP_pressure;BME280_temperature;BME280_humidity;BME280_pressure;Samples;Min_cycle;Max_cycle;Signal;HPM_P1;HPM_P2
2023/12/19 00:00:28;;;;;;;48.40;28.10;;;5.00;99.90;;;;;;5052093;28;20029;-68
2023/12/19 00:02:54;;;;;;;43.87;24.50;;;5.00;99.90;;;;;;5033405;28;20087;-68
2023/12/19 00:05:21;;;;;;;41.33;24.43;;;5.00;99.90;;;;;;5033690;28;20057;-69
2023/12/19 00:07:47;;;;;;;38.00;22.17;;;5.00;99.90;;;;;;5050743;28;20120;-68
2023/12/19 00:10:12;;;;;;;37.57;21.60;;;5.10;99.90;;;;;;5053433;28;20112;-68
2023/12/19 00:12:38;;;;;;;30.70;20.23;;;5.00;99.90;;;;;;5053101;28;20017;-68
2023/12/19 00:15:05;;;;;;;33.60;20.10;;;5.10;99.90;;;;;;5068232;28;20087;-69
2023/12/19 00:17:31;;;;;;;34.73;19.00;;;5.10;99.90;;;;;;5053219;28;20082;-68
2023/12/19 00:19:57;;;;;;;35.90;20.30;;;5.10;99.90;;;;;;5033880;28;20029;-68
2023/12/19 00:22:24;;;;;;;31.57;19.83;;;5.00;99.90;;;;;;5033603;28;20037;-69
2023/12/19 00:24:49;;;;;;;25.80;18.03;;;5.00;99.90;;;;;;5033382;28;20465;-68
2023/12/19 00:27:15;;;;;;;28.23;18.37;;;5.00;99.90;;;;;;5033292;28;20456;-68
2023/12/19 00:29:41;;;;;;;33.47;19.17;;;5.00;99.90;;;;;;5032624;28;20018;-68
2023/12/19 00:32:07;;;;;;;34.23;20.80;;;5.00;99.90;;;;;;5033265;28;20037;-69
2023/12/19 00:34:32;;;;;;;36.33;22.50;;;4.90;99.90;;;;;;5033104;28;20065;-68
2023/12/19 00:36:58;;;;;;;36.90;20.77;;;4.90;99.90;;;;;;5038836;28;20029;-68
2023/12/19 00:39:24;;;;;;;34.80;21.37;;;4.90;99.90;;;;;;5045581;28;20508;-68
2023/12/19 00:41:50;;;;;;;29.03;19.43;;;4.80;99.90;;;;;;5052772;28;20083;-68
2023/12/19 00:44:15;;;;;;;33.00;20.97;;;4.90;99.90;;;;;;5052777;28;20085;-68
2023/12/19 00:46:44;;;;;;;31.97;19.23;;;4.80;99.90;;;;;;5052540;28;20037;-68
2023/12/19 00:49:10;;;;;;;29.10;18.50;;;4.80;99.90;;;;;;5052592;28;20029;-68
2023/12/19 00:51:36;;;;;;;30.77;18.67;;;4.80;99.90;;;;;;5049418;28;20024;-68
2023/12/19 00:54:02;;;;;;;27.83;17.10;;;4.80;99.90;;;;;;5032601;28;20029;-68
2023/12/19 00:56:28;;;;;;;32.37;16.77;;;4.70;99.90;;;;;;5032980;28;20381;-68
2023/12/19 00:58:53;;;;;;;29.77;18.30;;;4.80;99.90;;;;;;5032481;28;20044;-68
2023/12/19 01:01:23;;;;;;;30.27;16.80;;;4.70;99.90;;;;;;5032506;28;20109;-68
2023/12/19 01:03:50;;;;;;;27.20;16.70;;;4.70;99.90;;;;;;5032595;28;20453;-68
2023/12/19 01:06:16;;;;;;;26.60;15.73;;;4.70;99.90;;;;;;5032737;28;20413;-69
2023/12/19 01:08:42;;;;;;;28.60;15.20;;;4.60;99.90;;;;;;5032545;28;20096;-68
2023/12/19 01:11:09;;;;;;;30.30;15.77;;;4.60;99.90;;;;;;5032858;28;20038;-68
2023/12/19 01:13:38;;;;;;;26.60;14.83;;;4.60;99.90;;;;;;5049835;28;20024;-68
2023/12/19 01:16:04;;;;;;;24.80;15.00;;;4.50;99.90;;;;;;5052287;28;20032;-68
2023/12/19 01:18:30;;;;;;;26.10;15.07;;;4.60;99.90;;;;;;5046030;28;20051;-69
2023/12/19 01:20:56;;;;;;;23.30;14.10;;;4.50;99.90;;;;;;5052355;28;20029;-68
2023/12/19 01:23:23;;;;;;;21.63;13.67;;;4.50;99.90;;;;;;5052432;28;20021;-68
2023/12/19 01:25:48;;;;;;;24.23;14.30;;;4.50;99.90;;;;;;5052460;28;20049;-68
2023/12/19 01:28:14;;;;;;;26.80;16.60;;;4.50;99.90;;;;;;5052485;28;20048;-68
2023/12/19 01:30:40;;;;;;;34.10;19.57;;;4.50;99.90;;;;;;5052340;28;20028;-68
2023/12/19 01:33:08;;;;;;;29.63;17.57;;;4.50;99.90;;;;;;5052469;28;20017;-68
2023/12/19 01:35:35;;;;;;;33.73;19.40;;;4.50;99.90;;;;;;5052543;28;20024;-68
2023/12/19 01:38:01;;;;;;;32.87;19.37;;;4.50;99.90;;;;;;5052311;28;20021;-69
2023/12/19 01:40:33;;;;;;;31.60;19.47;;;4.50;99.90;;;;;;5054859;28;20037;-69
2023/12/19 01:42:59;;;;;;;36.95;19.45;;;4.40;99.90;;;;;;5056309;28;20024;-68
2023/12/19 01:45:29;;;;;;;36.00;19.63;;;4.40;99.90;;;;;;5056248;28;20127;-68
2023/12/19 01:47:55;;;;;;;32.23;18.50;;;4.40;99.90;;;;;;5056299;28;20021;-69
2023/12/19 01:50:21;;;;;;;31.30;18.40;;;4.30;99.90;;;;;;5056190;28;20507;-68
2023/12/19 01:52:58;;;;;;;29.73;18.07;;;4.30;99.90;;;;;;5056058;28;20060;-68
2023/12/19 01:55:25;;;;;;;28.73;17.83;;;4.30;99.90;;;;;;5055645;28;20044;-68
2023/12/19 01:57:53;;;;;;;35.07;19.43;;;4.20;99.90;;;;;;5054627;28;20068;-68
2023/12/19 02:00:20;;;;;;;35.40;18.67;;;4.20;99.90;;;;;;5053400;28;20051;-68
2023/12/19 02:02:46;;;;;;;29.40;17.63;;;4.20;99.90;;;;;;5053035;28;20079;-68
2023/12/19 02:05:12;;;;;;;33.33;19.33;;;4.20;99.90;;;;;;5055199;28;20036;-67
2023/12/19 02:07:39;;;;;;;27.73;17.90;;;4.10;99.90;;;;;;5056367;28;20021;-66
2023/12/19 02:10:05;;;;;;;30.20;17.00;;;4.10;99.90;;;;;;5055968;28;20533;-68
2023/12/19 02:12:31;;;;;;;28.03;16.87;;;4.10;99.90;;;;;;5049628;28;20025;-66
2023/12/19 02:14:57;;;;;;;28.90;17.10;;;4.10;99.90;;;;;;5055973;28;20016;-67
2023/12/19 02:17:24;;;;;;;27.83;17.90;;;4.10;99.90;;;;;;5055833;28;20079;-67
2023/12/19 02:19:51;;;;;;;32.43;19.23;;;4.10;99.90;;;;;;5055617;28;20029;-67
2023/12/19 02:22:17;;;;;;;28.00;17.37;;;4.10;99.90;;;;;;5055073;28;20515;-67
2023/12/19 02:24:44;;;;;;;33.17;18.20;;;4.10;99.90;;;;;;5055227;28;20056;-67
2023/12/19 02:27:11;;;;;;;30.53;18.67;;;4.10;99.90;;;;;;5055567;28;20040;-67
2023/12/19 02:29:37;;;;;;;36.60;20.23;;;4.10;99.90;;;;;;5055119;28;20032;-67
2023/12/19 02:32:03;;;;;;;33.33;19.27;;;4.10;99.90;;;;;;5055466;28;20025;-67
2023/12/19 02:34:29;;;;;;;33.00;18.40;;;4.10;99.90;;;;;;5055405;28;20028;-67
2023/12/19 02:36:56;;;;;;;33.57;19.73;;;4.10;99.90;;;;;;5054932;28;20477;-67
2023/12/19 02:39:22;;;;;;;27.30;18.47;;;4.00;99.90;;;;;;5047473;28;20478;-68
2023/12/19 02:41:48;;;;;;;31.53;19.37;;;4.00;99.90;;;;;;5055163;28;20562;-69
2023/12/19 02:44:14;;;;;;;34.60;19.07;;;3.90;99.90;;;;;;5042504;28;20053;-69
2023/12/19 02:46:39;;;;;;;31.90;18.37;;;3.90;99.90;;;;;;5035514;28;20061;-68
2023/12/19 02:49:05;;;;;;;35.73;19.03;;;3.90;99.90;;;;;;5054946;28;20052;-68
2023/12/19 02:51:31;;;;;;;31.83;19.50;;;3.90;99.90;;;;;;5050010;28;20079;-68
2023/12/19 02:53:59;;;;;;;31.03;17.17;;;3.80;99.90;;;;;;5034868;28;20022;-68
2023/12/19 02:56:25;;;;;;;26.70;17.30;;;3.90;99.90;;;;;;5034537;28;20540;-68
2023/12/19 02:58:51;;;;;;;27.07;17.00;;;3.80;99.90;;;;;;5034953;28;20481;-68
2023/12/19 03:01:17;;;;;;;29.10;16.87;;;3.80;99.90;;;;;;5034915;28;20057;-69
2023/12/19 03:03:43;;;;;;;26.90;16.43;;;3.80;99.90;;;;;;5034984;28;20072;-69
2023/12/19 03:06:09;;;;;;;27.27;16.43;;;3.70;99.90;;;;;;5034773;28;20040;-68
2023/12/19 03:08:36;;;;;;;26.10;15.80;;;3.70;99.90;;;;;;5034718;28;20073;-68
2023/12/19 03:11:02;;;;;;;28.37;16.30;;;3.70;99.90;;;;;;5034550;28;20033;-68
2023/12/19 03:13:28;;;;;;;29.27;15.00;;;3.70;99.90;;;;;;5034552;28;20091;-68
2023/12/19 03:15:54;;;;;;;25.23;14.90;;;3.70;99.90;;;;;;5034476;28;20033;-68
2023/12/19 03:18:24;;;;;;;25.20;15.13;;;3.70;99.90;;;;;;5034599;28;20021;-68
2023/12/19 03:20:51;;;;;;;28.33;15.77;;;3.70;99.90;;;;;;5041987;28;20134;-68
2023/12/19 03:23:18;;;;;;;23.87;14.97;;;3.70;99.90;;;;;;5054202;28;20024;-69
2023/12/19 03:25:45;;;;;;;23.10;14.47;;;3.70;99.90;;;;;;5054410;28;20386;-69
2023/12/19 03:28:11;;;;;;;21.27;14.37;;;3.70;99.90;;;;;;5054291;28;20508;-68
2023/12/19 03:30:37;;;;;;;24.87;14.77;;;3.70;99.90;;;;;;5053837;28;20492;-68
2023/12/19 03:33:03;;;;;;;23.60;14.87;;;3.70;99.90;;;;;;5053966;28;20059;-68
2023/12/19 03:35:28;;;;;;;26.40;15.67;;;3.70;99.90;;;;;;5054043;28;20104;-69
2023/12/19 03:37:54;;;;;;;22.07;13.77;;;3.70;99.90;;;;;;5053923;28;20017;-68
2023/12/19 03:40:20;;;;;;;22.60;14.73;;;3.80;99.90;;;;;;5053930;28;20041;-69
2023/12/19 03:42:46;;;;;;;27.07;15.63;;;3.80;99.90;;;;;;5054090;28;20032;-69
2023/12/19 03:45:12;;;;;;;25.73;15.30;;;3.80;99.90;;;;;;5054321;28;20131;-69
2023/12/19 03:47:39;;;;;;;27.93;14.90;;;3.80;99.90;;;;;;5053751;28;20052;-69
2023/12/19 03:50:06;;;;;;;23.17;13.73;;;3.80;99.90;;;;;;5053972;28;20017;-68
2023/12/19 03:52:32;;;;;;;24.83;15.93;;;3.90;99.90;;;;;;5053884;28;20055;-69
2023/12/19 03:54:57;;;;;;;25.53;16.37;;;3.80;99.90;;;;;;5053713;28;20021;-69
2023/12/19 03:57:23;;;;;;;25.60;15.90;;;3.90;99.90;;;;;;5053717;28;20461;-68
2023/12/19 03:59:49;;;;;;;24.70;15.17;;;3.80;99.90;;;;;;5053481;28;20072;-69
2023/12/19 04:02:15;;;;;;;27.73;14.90;;;3.80;99.90;;;;;;5053410;28;20037;-69
2023/12/19 04:04:41;;;;;;;27.17;15.00;;;3.70;99.90;;;;;;5053355;28;20044;-69
2023/12/19 04:07:08;;;;;;;28.07;15.20;;;3.70;99.90;;;;;;5041509;28;20025;-69
2023/12/19 04:09:34;;;;;;;30.10;15.80;;;3.70;99.90;;;;;;5033259;28;20045;-68
2023/12/19 04:12:02;;;;;;;27.60;15.87;;;3.60;99.90;;;;;;5033549;28;20029;-68
2023/12/19 04:14:29;;;;;;;27.30;15.03;;;3.60;99.90;;;;;;5033604;28;20017;-69
2023/12/19 04:16:55;;;;;;;24.20;14.20;;;3.60;99.90;;;;;;5033421;28;20486;-68
2023/12/19 04:19:21;;;;;;;20.70;13.50;;;3.60;99.90;;;;;;5033445;28;20032;-69
2023/12/19 04:21:48;;;;;;;22.50;12.97;;;3.60;99.90;;;;;;5033323;28;20061;-68
2023/12/19 04:24:14;;;;;;;20.77;12.87;;;3.60;99.90;;;;;;5033444;28;20029;-69
2023/12/19 04:26:42;;;;;;;22.27;13.20;;;3.60;99.90;;;;;;5033201;28;20108;-68
2023/12/19 04:29:08;;;;;;;20.77;12.40;;;3.70;99.90;;;;;;5038253;28;20081;-68
2023/12/19 04:31:33;;;;;;;20.90;13.80;;;3.70;99.90;;;;;;5045244;28;20505;-69
2023/12/19 04:33:59;;;;;;;23.30;13.33;;;3.70;99.90;;;;;;5046539;28;20049;-68
2023/12/19 04:36:25;;;;;;;20.77;12.97;;;3.70;99.90;;;;;;5045911;28;20086;-68
2023/12/19 04:38:52;;;;;;;21.63;13.03;;;3.70;99.90;;;;;;5045062;28;20448;-68
2023/12/19 04:41:17;;;;;;;24.93;14.43;;;3.70;99.90;;;;;;5042837;28;20485;-68
2023/12/19 04:43:43;;;;;;;24.73;14.53;;;3.60;99.90;;;;;;5041414;28;20025;-68
2023/12/19 04:46:09;;;;;;;24.80;13.93;;;3.60;99.90;;;;;;5032850;28;20021;-69
2023/12/19 04:48:35;;;;;;;20.37;12.53;;;3.60;99.90;;;;;;5032685;28;20017;-68
2023/12/19 04:51:01;;;;;;;22.73;13.90;;;3.70;99.90;;;;;;5032394;28;20036;-68
2023/12/19 04:53:28;;;;;;;24.30;13.83;;;3.70;99.90;;;;;;5032741;28;20147;-68
2023/12/19 04:55:53;;;;;;;21.00;12.33;;;3.60;99.90;;;;;;5032706;28;20022;-69
2023/12/19 04:58:19;;;;;;;22.60;12.97;;;3.60;99.90;;;;;;5032929;28;20037;-68
2023/12/19 05:00:47;;;;;;;23.97;13.23;;;3.60;99.90;;;;;;5028348;28;20040;-69
2023/12/19 05:03:14;;;;;;;22.10;13.23;;;3.50;99.90;;;;;;5032804;28;20065;-68
2023/12/19 05:05:39;;;;;;;21.80;13.50;;;3.50;99.90;;;;;;5027433;28;20071;-68
2023/12/19 05:08:05;;;;;;;23.57;14.70;;;3.50;99.90;;;;;;5032069;28;20026;-69
2023/12/19 05:10:31;;;;;;;21.70;14.37;;;3.50;99.90;;;;;;5032726;28;20025;-68
2023/12/19 05:12:57;;;;;;;20.43;13.30;;;3.50;99.90;;;;;;5032671;28;20034;-69
2023/12/19 05:15:22;;;;;;;16.73;11.03;;;3.50;99.90;;;;;;5032275;28;20029;-68
2023/12/19 05:17:48;;;;;;;15.87;9.93;;;3.50;99.90;;;;;;5032370;28;20032;-68
2023/12/19 05:20:14;;;;;;;19.47;10.73;;;3.60;99.90;;;;;;5032479;28;20422;-68
2023/12/19 05:22:40;;;;;;;17.67;10.47;;;3.60;99.90;;;;;;5032493;28;20033;-69
2023/12/19 05:25:06;;;;;;;20.03;11.77;;;3.60;99.90;;;;;;5032416;28;20026;-68
2023/12/19 05:27:32;;;;;;;19.23;12.17;;;3.60;99.90;;;;;;5032682;28;20052;-68
2023/12/19 05:29:58;;;;;;;20.23;12.50;;;3.60;99.90;;;;;;5035102;28;20462;-68
2023/12/19 05:32:24;;;;;;;21.33;12.93;;;3.60;99.90;;;;;;5040915;28;20033;-68
2023/12/19 05:34:50;;;;;;;19.60;12.67;;;3.60;99.90;;;;;;5032198;28;20041;-68
2023/12/19 05:37:16;;;;;;;21.40;13.07;;;3.60;99.90;;;;;;5032609;28;20030;-68
2023/12/19 05:39:42;;;;;;;22.97;13.60;;;3.50;99.90;;;;;;5032580;28;20056;-68
2023/12/19 05:42:08;;;;;;;23.80;14.27;;;3.50;99.90;;;;;;5032221;28;20069;-68
2023/12/19 05:44:34;;;;;;;22.83;14.10;;;3.40;99.90;;;;;;5032372;28;20154;-69
2023/12/19 05:47:00;;;;;;;20.47;12.53;;;3.40;99.90;;;;;;5032080;28;20061;-68
2023/12/19 05:49:25;;;;;;;21.07;12.63;;;3.30;99.90;;;;;;5032466;28;20482;-69
2023/12/19 05:51:51;;;;;;;22.10;12.00;;;3.30;99.90;;;;;;5032255;28;20034;-68
2023/12/19 05:54:17;;;;;;;22.10;12.70;;;3.30;99.90;;;;;;5032400;28;20474;-68
2023/12/19 05:56:43;;;;;;;44.67;14.03;;;3.20;99.90;;;;;;5031928;28;20060;-68
2023/12/19 05:59:08;;;;;;;35.17;13.80;;;3.20;99.90;;;;;;5032231;28;20030;-68
2023/12/19 06:01:42;;;;;;;33.27;13.63;;;3.20;99.90;;;;;;5032134;28;20041;-68
2023/12/19 06:04:07;;;;;;;25.30;13.20;;;3.20;99.90;;;;;;5032472;28;20032;-68
2023/12/19 06:06:37;;;;;;;23.73;12.87;;;3.20;99.90;;;;;;5032320;28;20030;-68
2023/12/19 06:09:05;;;;;;;26.13;12.47;;;3.20;99.90;;;;;;5032010;28;20114;-68
2023/12/19 06:11:30;;;;;;;22.23;12.87;;;3.30;99.90;;;;;;5031896;28;20040;-68
2023/12/19 06:13:56;;;;;;;30.07;13.27;;;3.20;99.90;;;;;;5031995;28;20034;-68
2023/12/19 06:16:22;;;;;;;24.37;13.23;;;3.20;99.90;;;;;;5031590;28;20025;-68
2023/12/19 06:18:47;;;;;;;28.03;14.23;;;3.20;99.90;;;;;;5031810;28;20125;-68
2023/12/19 06:21:13;;;;;;;25.10;14.40;;;3.20;99.90;;;;;;5031904;28;20091;-68
2023/12/19 06:23:39;;;;;;;28.67;14.27;;;3.20;99.90;;;;;;5031967;28;20033;-68
2023/12/19 06:26:06;;;;;;;28.57;14.20;;;3.20;99.90;;;;;;5031933;28;20033;-68
2023/12/19 06:28:32;;;;;;;26.10;15.37;;;3.20;99.90;;;;;;5029075;28;20169;-68
2023/12/19 06:30:58;;;;;;;26.53;13.50;;;3.20;99.90;;;;;;5035131;28;20033;-68
2023/12/19 06:33:24;;;;;;;29.03;14.10;;;3.20;99.90;;;;;;5035219;28;20163;-68
2023/12/19 06:35:53;;;;;;;24.93;12.63;;;3.20;99.90;;;;;;5034993;28;20104;-68
2023/12/19 06:38:19;;;;;;;24.10;13.03;;;3.30;99.90;;;;;;5034521;28;20113;-68
2023/12/19 06:40:45;;;;;;;31.43;13.60;;;3.30;99.90;;;;;;5034944;28;20048;-68
2023/12/19 06:43:11;;;;;;;29.90;14.00;;;3.20;99.90;;;;;;5035029;28;20036;-68
2023/12/19 06:45:37;;;;;;;36.63;14.77;;;3.20;99.90;;;;;;5029352;28;20137;-68
2023/12/19 06:48:03;;;;;;;28.10;14.63;;;3.20;99.90;;;;;;5035110;28;20180;-68
2023/12/19 06:50:29;;;;;;;25.20;13.97;;;3.10;99.90;;;;;;5034851;28;20100;-68
2023/12/19 06:52:55;;;;;;;37.00;15.90;;;3.10;99.90;;;;;;5034468;28;20104;-68
2023/12/19 06:55:21;;;;;;;23.13;15.17;;;3.00;99.90;;;;;;5034917;28;20021;-68
2023/12/19 06:57:47;;;;;;;31.03;15.73;;;3.00;99.90;;;;;;5034848;28;20112;-68
2023/12/19 07:00:15;;;;;;;25.63;15.63;;;3.00;99.90;;;;;;5034344;28;20018;-69
2023/12/19 07:02:41;;;;;;;33.60;20.53;;;2.90;99.90;;;;;;5034199;28;20021;-68
2023/12/19 07:05:07;;;;;;;35.20;20.33;;;3.00;99.90;;;;;;5034492;28;20025;-68
2023/12/19 07:07:33;;;;;;;32.37;18.37;;;3.00;99.90;;;;;;5034624;28;20032;-69
2023/12/19 07:10:00;;;;;;;32.93;18.53;;;3.00;99.90;;;;;;5034459;28;20413;-68
2023/12/19 07:12:26;;;;;;;29.27;18.07;;;3.10;99.90;;;;;;5034416;28;20017;-69
2023/12/19 07:14:52;;;;;;;29.80;16.43;;;3.10;99.90;;;;;;5034544;28;20056;-69
2023/12/19 07:17:18;;;;;;;25.50;15.07;;;3.20;99.90;;;;;;5034233;28;20041;-68
2023/12/19 07:19:43;;;;;;;34.60;14.67;;;3.20;99.90;;;;;;5034485;28;20037;-69
2023/12/19 07:22:09;;;;;;;33.93;16.80;;;3.20;99.90;;;;;;5034061;28;20036;-69
2023/12/19 07:24:35;;;;;;;30.47;16.57;;;3.20;99.90;;;;;;5034004;28;20022;-69
2023/12/19 07:27:01;;;;;;;31.30;15.63;;;3.20;99.90;;;;;;5033834;28;20025;-68
2023/12/19 07:29:26;;;;;;;31.03;16.27;;;3.20;99.90;;;;;;5033842;28;20021;-68
2023/12/19 07:31:52;;;;;;;29.63;17.30;;;3.30;99.90;;;;;;5034153;28;20029;-69
2023/12/19 07:34:18;;;;;;;30.30;17.33;;;3.30;99.90;;;;;;5033915;28;20025;-69
2023/12/19 07:36:45;;;;;;;33.67;17.47;;;3.30;99.90;;;;;;5033436;28;20032;-69
2023/12/19 07:39:11;;;;;;;26.40;15.60;;;3.40;99.90;;;;;;5033879;28;20489;-69
2023/12/19 07:41:37;;;;;;;26.00;16.00;;;3.40;99.90;;;;;;5033646;28;20037;-68
2023/12/19 07:44:09;;;;;;;27.13;15.20;;;3.50;99.90;;;;;;5033779;28;20030;-69
2023/12/19 07:46:39;;;;;;;24.73;16.03;;;3.60;99.90;;;;;;5034048;28;20079;-68
2023/12/19 07:49:05;;;;;;;38.20;18.13;;;3.70;99.90;;;;;;5034329;28;20025;-69
2023/12/19 07:51:30;;;;;;;30.50;18.47;;;3.70;99.90;;;;;;5033811;28;20536;-69
2023/12/19 07:53:57;;;;;;;31.27;16.83;;;3.80;99.90;;;;;;5033081;28;20029;-68
2023/12/19 07:56:23;;;;;;;28.23;17.07;;;3.90;99.90;;;;;;5033073;28;20017;-68
2023/12/19 07:58:48;;;;;;;27.03;17.23;;;3.90;99.90;;;;;;5033039;28;20084;-68
2023/12/19 08:01:14;;;;;;;32.50;17.17;;;4.00;99.90;;;;;;5033012;28;20389;-68
2023/12/19 08:03:42;;;;;;;27.77;16.73;;;4.10;99.90;;;;;;5033497;28;20018;-69
2023/12/19 08:06:08;;;;;;;33.23;17.17;;;4.10;99.90;;;;;;5015418;28;20083;-69
2023/12/19 08:08:34;;;;;;;31.10;16.77;;;4.20;99.90;;;;;;5033176;28;20497;-68
2023/12/19 08:11:00;;;;;;;33.53;17.33;;;4.20;99.90;;;;;;5032354;28;20477;-68
2023/12/19 08:13:26;;;;;;;31.63;17.40;;;4.30;99.90;;;;;;5033578;28;20366;-69
2023/12/19 08:15:52;;;;;;;32.87;17.40;;;4.40;99.90;;;;;;5033463;28;20021;-69
2023/12/19 08:18:20;;;;;;;33.60;18.47;;;4.40;99.90;;;;;;5033529;28;20022;-69
2023/12/19 08:20:46;;;;;;;31.10;18.43;;;4.50;99.90;;;;;;5033023;28;20435;-68
2023/12/19 08:23:12;;;;;;;33.60;16.67;;;4.60;99.90;;;;;;5033239;28;20026;-68
2023/12/19 08:25:41;;;;;;;29.47;17.60;;;4.60;99.90;;;;;;5033392;28;20026;-69
2023/12/19 08:28:10;;;;;;;38.53;17.23;;;4.70;99.90;;;;;;5031662;28;20108;-69
2023/12/19 08:30:36;;;;;;;31.23;17.47;;;4.80;99.90;;;;;;5031157;28;20116;-68
2023/12/19 08:33:02;;;;;;;32.93;17.03;;;4.90;99.90;;;;;;5032265;28;20103;-69
2023/12/19 08:35:29;;;;;;;36.37;16.70;;;4.90;99.90;;;;;;5031962;28;20120;-68
2023/12/19 08:37:55;;;;;;;45.03;21.17;;;5.00;99.90;;;;;;5032805;28;20033;-68
2023/12/19 08:40:21;;;;;;;66.37;23.20;;;5.00;99.90;;;;;;5032964;28;20135;-69
2023/12/19 08:42:48;;;;;;;60.20;22.90;;;5.10;99.90;;;;;;5032606;28;20034;-68
2023/12/19 08:45:18;;;;;;;58.37;21.90;;;5.10;99.90;;;;;;5044987;28;20064;-68
2023/12/19 08:47:44;;;;;;;58.60;22.77;;;5.10;99.90;;;;;;5032884;28;20072;-69
2023/12/19 08:50:12;;;;;;;52.13;21.67;;;5.20;99.90;;;;;;5032382;28;20511;-69
2023/12/19 08:52:39;;;;;;;52.77;20.63;;;5.20;99.90;;;;;;5032886;28;20048;-69
2023/12/19 08:55:09;;;;;;;48.00;21.37;;;5.20;99.90;;;;;;5032987;28;20116;-69
2023/12/19 08:57:40;;;;;;;52.70;24.10;;;5.20;99.90;;;;;;5032857;28;20036;-69
2023/12/19 09:00:06;;;;;;;52.07;20.80;;;5.30;99.90;;;;;;5032800;28;20414;-69
2023/12/19 09:02:32;;;;;;;42.63;20.67;;;5.30;99.90;;;;;;5032622;28;20079;-69
2023/12/19 09:04:58;;;;;;;39.67;18.93;;;5.30;99.90;;;;;;5032724;28;20018;-69
2023/12/19 09:07:23;;;;;;;40.83;19.23;;;5.50;99.90;;;;;;5032753;28;20033;-69
2023/12/19 09:09:51;;;;;;;39.53;17.27;;;5.50;99.90;;;;;;5032585;28;20053;-69
2023/12/19 09:12:17;;;;;;;30.83;14.83;;;5.60;99.90;;;;;;5032482;28;20040;-69
2023/12/19 09:14:43;;;;;;;22.77;12.20;;;5.60;99.90;;;;;;5032489;28;20021;-69
2023/12/19 09:17:09;;;;;;;59.43;17.70;;;5.70;99.90;;;;;;5032808;28;20032;-68
2023/12/19 09:19:37;;;;;;;39.93;15.80;;;5.80;99.90;;;;;;5032696;28;20045;-69
2023/12/19 09:22:03;;;;;;;40.17;13.30;;;5.90;99.90;;;;;;5032637;28;20116;-69
2023/12/19 09:24:30;;;;;;;43.30;12.03;;;6.00;99.90;;;;;;5032610;28;20069;-68
2023/12/19 09:26:59;;;;;;;31.47;9.07;;;6.10;99.90;;;;;;5032544;28;20022;-69
2023/12/19 09:29:27;;;;;;;43.73;11.00;;;6.20;99.90;;;;;;5032464;28;20466;-69
2023/12/19 09:31:54;;;;;;;36.17;11.20;;;6.20;99.90;;;;;;5032282;28;20876;-69
2023/12/19 09:34:19;;;;;;;36.93;10.17;;;6.30;99.90;;;;;;5032580;28;20021;-69
2023/12/19 09:36:45;;;;;;;44.20;9.63;;;6.40;99.90;;;;;;5032595;28;20417;-69
2023/12/19 09:39:14;;;;;;;23.77;9.77;;;6.50;99.90;;;;;;5032730;28;20026;-69
2023/12/19 09:41:45;;;;;;;23.83;9.67;;;6.50;99.90;;;;;;5032301;28;20037;-68
2023/12/19 09:44:11;;;;;;;22.03;10.97;;;6.60;99.90;;;;;;5032189;28;20492;-69
2023/12/19 09:46:38;;;;;;;24.63;10.63;;;6.60;99.90;;;;;;5032436;28;20033;-69
2023/12/19 09:49:04;;;;;;;21.67;11.20;;;6.70;99.90;;;;;;5032187;28;20021;-69
2023/12/19 09:51:34;;;;;;;19.37;10.63;;;6.70;99.90;;;;;;5032288;28;20018;-69
2023/12/19 09:54:01;;;;;;;21.13;9.27;;;6.80;99.90;;;;;;5032478;28;20037;-69
2023/12/19 09:56:27;;;;;;;18.13;9.60;;;6.90;99.90;;;;;;5032310;28;20139;-69
2023/12/19 09:58:54;;;;;;;17.97;9.43;;;6.90;99.90;;;;;;5032316;28;20112;-69
2023/12/19 10:01:20;;;;;;;27.63;10.10;;;7.00;99.90;;;;;;5034275;28;20042;-69
2023/12/19 10:03:49;;;;;;;13.83;8.97;;;7.00;99.90;;;;;;5036091;28;20040;-68
2023/12/19 10:06:17;;;;;;;19.57;8.63;;;7.10;99.90;;;;;;5036015;28;20027;-69
2023/12/19 10:08:44;;;;;;;12.47;8.07;;;7.10;99.90;;;;;;5036583;22;20042;-69
2023/12/19 10:11:17;;;;;;;16.63;7.97;;;7.20;99.90;;;;;;5014591;28;20038;-69
2023/12/19 10:13:43;;;;;;;14.70;7.97;;;7.30;99.90;;;;;;5015670;28;20030;-69
2023/12/19 10:16:11;;;;;;;13.43;7.17;;;7.40;99.90;;;;;;5016342;28;20042;-69
2023/12/19 10:18:38;;;;;;;21.50;8.43;;;7.40;99.90;;;;;;5016123;28;20025;-69
2023/12/19 10:21:08;;;;;;;15.80;8.77;;;7.50;99.90;;;;;;5015369;28;20124;-69
2023/12/19 10:23:37;;;;;;;15.60;7.53;;;7.60;99.90;;;;;;5015289;28;20037;-69
2023/12/19 10:26:04;;;;;;;14.97;8.20;;;7.70;99.90;;;;;;5015599;28;20034;-70
2023/12/19 10:28:32;;;;;;;20.93;9.07;;;7.80;99.90;;;;;;5030658;28;20030;-69
2023/12/19 10:31:06;;;;;;;22.30;7.67;;;7.90;99.90;;;;;;5015390;28;20033;-69
2023/12/19 10:33:56;;;;;;;18.83;8.87;;;7.90;99.90;;;;;;5015104;28;20060;-69
2023/12/19 10:36:25;;;;;;;18.97;8.20;;;8.10;99.90;;;;;;5015453;28;20044;-69
2023/12/19 10:38:52;;;;;;;16.23;7.93;;;8.20;99.90;;;;;;5015493;28;20024;-69
2023/12/19 10:41:31;;;;;;;14.47;8.10;;;8.20;99.90;;;;;;5014906;28;20080;-69
2023/12/19 10:43:59;;;;;;;18.70;7.83;;;8.30;99.80;;;;;;5014350;28;20029;-69
2023/12/19 10:46:27;;;;;;;15.33;7.07;;;8.40;99.50;;;;;;5015127;28;20026;-69
2023/12/19 10:49:00;;;;;;;14.63;6.80;;;8.50;99.40;;;;;;5015568;28;20073;-69
2023/12/19 10:51:32;;;;;;;11.52;6.63;;;8.60;99.10;;;;;;5014034;28;20538;-69
2023/12/19 10:54:10;;;;;;;14.80;6.20;;;8.70;98.80;;;;;;5014865;28;20030;-69
2023/12/19 10:56:51;;;;;;;11.43;5.83;;;8.80;98.40;;;;;;5013431;28;20092;-69
2023/12/19 10:59:31;;;;;;;9.03;4.63;;;8.90;98.10;;;;;;5013282;28;20084;-69
2023/12/19 11:02:04;;;;;;;8.07;4.57;;;8.90;98.20;;;;;;5012747;28;20034;-71
2023/12/19 11:04:37;;;;;;;7.97;4.37;;;9.00;98.00;;;;;;5013782;28;20029;-68
2023/12/19 11:07:08;;;;;;;8.48;4.05;;;9.10;97.90;;;;;;5013608;28;20104;-68
2023/12/19 11:09:36;;;;;;;9.93;4.57;;;9.10;97.60;;;;;;5013975;28;20097;-68
2023/12/19 11:12:02;;;;;;;8.60;3.83;;;9.20;97.40;;;;;;5013293;28;20033;-68
2023/12/19 11:14:28;;;;;;;7.90;4.50;;;9.30;97.10;;;;;;5012788;28;20072;-69
2023/12/19 11:16:59;;;;;;;8.73;4.87;;;9.30;96.70;;;;;;5012099;28;20030;-68
2023/12/19 11:19:33;;;;;;;10.60;5.20;;;9.40;96.70;;;;;;5012855;28;20026;-68
2023/12/19 11:22:31;;;;;;;11.67;5.27;;;9.50;96.50;;;;;;5013394;28;20505;-68
2023/12/19 11:25:18;;;;;;;15.80;5.23;;;9.50;96.40;;;;;;5013572;28;20478;-68
2023/12/19 11:27:53;;;;;;;17.67;5.50;;;9.60;96.40;;;;;;5014607;28;20049;-68
2023/12/19 11:30:32;;;;;;;9.67;4.80;;;9.60;96.20;;;;;;5019673;28;20037;-68
2023/12/19 11:32:58;;;;;;;16.10;5.50;;;9.70;96.00;;;;;;5029464;28;20113;-67
2023/12/19 11:35:29;;;;;;;13.27;5.43;;;9.80;95.80;;;;;;5024897;28;20037;-67
2023/12/19 11:38:13;;;;;;;15.73;6.23;;;9.90;95.80;;;;;;5032256;28;20017;-68
2023/12/19 11:40:45;;;;;;;11.77;6.03;;;9.90;95.50;;;;;;5033614;28;20068;-68
2023/12/19 11:43:32;;;;;;;14.57;6.10;;;10.00;95.40;;;;;;5033683;28;20053;-68
2023/12/19 11:46:06;;;;;;;21.43;6.23;;;10.00;95.40;;;;;;5009056;28;20030;-67
2023/12/19 11:48:44;;;;;;;22.27;6.63;;;10.10;95.20;;;;;;4994468;28;20027;-68
2023/12/19 11:51:11;;;;;;;24.07;7.47;;;10.20;94.90;;;;;;4994017;28;20018;-67
2023/12/19 11:53:43;;;;;;;29.80;6.50;;;10.20;94.80;;;;;;4992815;28;20026;-68
2023/12/19 11:56:13;;;;;;;25.07;6.87;;;10.30;94.80;;;;;;4991294;28;20070;-69
2023/12/19 11:58:51;;;;;;;21.13;6.40;;;10.30;94.70;;;;;;4993114;28;20029;-68
2023/12/19 12:01:20;;;;;;;15.77;6.63;;;10.40;95.10;;;;;;4993568;28;20489;-68
2023/12/19 12:03:47;;;;;;;17.43;7.27;;;10.50;95.20;;;;;;4993409;28;20520;-68
2023/12/19 12:06:17;;;;;;;20.07;7.17;;;10.50;94.80;;;;;;5006364;28;20512;-68
2023/12/19 12:08:54;;;;;;;16.33;5.97;;;10.60;94.50;;;;;;5024258;28;20046;-68
2023/12/19 12:11:20;;;;;;;29.65;8.13;;;10.70;94.40;;;;;;5012970;28;20097;-68
2023/12/19 12:14:03;;;;;;;23.02;6.88;;;10.70;94.30;;;;;;5013146;28;20030;-68
2023/12/19 12:16:39;;;;;;;16.40;7.53;;;10.70;94.30;;;;;;5012408;28;20084;-69
2023/12/19 12:19:19;;;;;;;20.40;7.13;;;10.70;94.00;;;;;;5007848;28;20033;-68
2023/12/19 12:21:49;;;;;;;20.90;6.78;;;10.80;94.10;;;;;;5010000;28;20048;-68
2023/12/19 12:24:26;;;;;;;23.08;7.40;;;10.90;94.30;;;;;;5010012;28;20061;-68
2023/12/19 12:27:06;;;;;;;16.00;6.18;;;10.90;94.10;;;;;;5012760;28;20390;-68
2023/12/19 12:29:37;;;;;;;13.23;5.50;;;11.00;93.70;;;;;;5004733;28;20037;-68
2023/12/19 12:32:03;;;;;;;25.13;5.15;;;11.00;93.20;;;;;;5023732;28;20048;-68
2023/12/19 12:34:32;;;;;;;18.25;4.82;;;11.10;92.80;;;;;;5031024;28;20103;-68
2023/12/19 12:36:58;;;;;;;16.00;4.35;;;11.10;92.40;;;;;;5031656;28;20477;-69
2023/12/19 12:39:24;;;;;;;11.77;4.40;;;11.10;92.00;;;;;;5031584;28;20036;-68